createdAt,value
2022-09-26T00:01:42.993Z,98444.48
2022-09-26T00:04:16.092Z,98441.48
2022-09-26T00:06:44.334Z,98436.58
2022-09-26T00:09:14.907Z,98433.48
2022-09-26T00:11:43.327Z,98427.02
2022-09-26T00:14:20.365Z,98427.09
2022-09-26T00:16:48.807Z,98423.98
2022-09-26T00:19:17.703Z,98415.28
2022-09-26T00:21:45.966Z,98414.91
2022-09-26T00:24:15.139Z,98415.09
2022-09-26T00:26:43.781Z,98418.44
2022-09-26T00:29:13.973Z,98415.06
2022-09-26T00:31:45.047Z,98413.92
2022-09-26T00:34:17.945Z,98413.02
2022-09-26T00:36:46.289Z,98412.77
2022-09-26T00:39:16.695Z,98411.61
2022-09-26T00:41:45.782Z,98409.17
2022-09-26T00:44:37.617Z,98404.27
2022-09-26T00:47:11.563Z,98401.90
2022-09-26T00:49:44.720Z,98396.14
2022-09-26T00:52:22.066Z,98398.52
2022-09-26T00:54:54.959Z,98393.94
2022-09-26T00:57:29.752Z,98386.60
2022-09-26T01:00:02.811Z,98384.11
2022-09-26T01:02:31.531Z,98386.83
2022-09-26T01:05:00.957Z,98380.70
2022-09-26T01:07:30.279Z,98378.20
2022-09-26T01:09:59.354Z,98375.27
2022-09-26T01:12:27.772Z,98379.67
2022-09-26T01:14:58.319Z,98375.00
2022-09-26T01:17:27.619Z,98379.40
2022-09-26T01:20:11.866Z,98378.06
2022-09-26T01:23:04.299Z,98377.86
2022-09-26T01:25:50.902Z,98380.31
2022-09-26T01:28:44.009Z,98381.83
2022-09-26T01:32:06.574Z,98381.00
2022-09-26T01:34:54.034Z,98371.70
2022-09-26T01:37:51.677Z,98369.39
2022-09-26T01:40:53.936Z,98365.55
2022-09-26T01:43:40.178Z,98361.66
2022-09-26T01:46:14.391Z,98358.32
2022-09-26T01:48:52.921Z,98353.77
2022-09-26T01:51:32.936Z,98350.96
2022-09-26T01:54:18.162Z,98345.14
2022-09-26T01:56:48.999Z,98342.94
2022-09-26T01:59:41.062Z,98342.98
2022-09-26T02:02:19.463Z,98342.85
2022-09-26T02:04:53.535Z,98340.61
2022-09-26T02:07:34.595Z,98339.52
2022-09-26T02:10:28.974Z,98342.16
2022-09-26T02:13:11.739Z,98340.48
2022-09-26T02:15:40.631Z,98340.48
2022-09-26T02:18:29.073Z,98338.02
2022-09-26T02:21:12.187Z,98335.33
2022-09-26T02:23:40.480Z,98330.83
2022-09-26T02:26:09.119Z,98333.30
2022-09-26T02:28:37.454Z,98328.36
2022-09-26T02:31:08.640Z,98327.70
2022-09-26T02:33:37.010Z,98326.57
2022-09-26T02:36:10.502Z,98325.77
2022-09-26T02:38:38.782Z,98327.86
2022-09-26T02:42:01.047Z,98332.98
2022-09-26T02:44:36.180Z,98334.71
2022-09-26T02:47:16.626Z,98333.54
2022-09-26T02:50:09.063Z,98330.09
2022-09-26T02:52:56.559Z,98326.63
2022-09-26T02:55:41.249Z,98325.65
2022-09-26T02:58:36.144Z,98324.46
2022-09-26T03:01:16.153Z,98315.12
2022-09-26T03:04:14.984Z,98316.05
2022-09-26T03:06:46.808Z,98306.39
2022-09-26T03:09:17.904Z,98299.73
2022-09-26T03:11:47.928Z,98295.86
2022-09-26T03:14:18.343Z,98293.15
2022-09-26T03:16:51.576Z,98293.29
2022-09-26T03:19:33.944Z,98288.05
2022-09-26T03:22:02.724Z,98286.96
2022-09-26T03:24:32.926Z,98280.73
2022-09-26T03:27:05.314Z,98279.30
2022-09-26T03:29:34.446Z,98276.09
2022-09-26T03:32:03.032Z,98272.52
2022-09-26T03:34:31.542Z,98266.56
2022-09-26T03:37:01.159Z,98265.52
2022-09-26T03:39:29.385Z,98267.59
2022-09-26T03:42:10.733Z,98269.73
2022-09-26T03:44:40.410Z,98265.46
2022-09-26T03:47:08.694Z,98267.92
2022-09-26T03:49:41.099Z,98265.84
2022-09-26T03:52:13.964Z,98258.85
2022-09-26T03:54:44.382Z,98253.97
2022-09-26T03:57:14.114Z,98249.22
2022-09-26T03:59:49.537Z,98241.21
2022-09-26T04:02:20.032Z,98245.59
2022-09-26T04:04:50.033Z,98243.76
2022-09-26T04:07:18.267Z,98246.00
2022-09-26T04:09:48.835Z,98248.91
2022-09-26T04:12:18.129Z,98252.11
2022-09-26T04:14:46.970Z,98252.96
2022-09-26T04:17:15.223Z,98252.98
2022-09-26T04:19:45.517Z,98254.73
2022-09-26T04:22:14.033Z,98255.70
2022-09-26T04:24:42.392Z,98250.90
2022-09-26T04:27:10.717Z,98252.83
2022-09-26T04:29:39.507Z,98253.65
2022-09-26T04:32:28.176Z,98256.04
2022-09-26T04:35:19.261Z,98254.42
2022-09-26T04:37:47.719Z,98254.74
2022-09-26T04:40:16.350Z,98257.19
2022-09-26T04:42:54.795Z,98256.91
2022-09-26T04:45:23.368Z,98252.81
2022-09-26T04:47:51.697Z,98250.11
2022-09-26T04:50:26.469Z,98249.59
2022-09-26T04:53:09.283Z,98253.66
2022-09-26T04:55:46.845Z,98260.16
2022-09-26T04:58:16.756Z,98254.88
2022-09-26T05:00:48.077Z,98255.04
2022-09-26T05:03:19.156Z,98252.98
2022-09-26T05:05:47.589Z,98250.39
2022-09-26T05:08:16.298Z,98238.14
2022-09-26T05:10:44.582Z,98236.41
2022-09-26T05:13:12.911Z,98228.37
2022-09-26T05:15:43.177Z,98222.42
2022-09-26T05:18:11.869Z,98213.73
2022-09-26T05:20:40.337Z,98210.16
2022-09-26T05:23:10.504Z,98210.83
2022-09-26T05:25:59.617Z,98209.77
2022-09-26T05:28:27.950Z,98207.63
2022-09-26T05:30:57.014Z,98208.19
2022-09-26T05:33:25.344Z,98216.05
2022-09-26T05:35:54.195Z,98219.36
2022-09-26T05:38:22.562Z,98225.41
2022-09-26T05:40:56.888Z,98225.23
2022-09-26T05:43:31.046Z,98217.84
2022-09-26T05:46:01.553Z,98211.23
2022-09-26T05:48:36.662Z,98212.16
2022-09-26T05:51:12.593Z,98213.16
2022-09-26T05:53:45.103Z,98215.23
2022-09-26T05:56:18.953Z,98216.45
2022-09-26T05:59:07.105Z,98218.73
2022-09-26T06:02:08.338Z,98217.20
2022-09-26T06:04:54.209Z,98214.53
2022-09-26T06:07:34.946Z,98214.00
2022-09-26T06:10:06.695Z,98216.17
2022-09-26T06:12:55.170Z,98210.26
2022-09-26T06:15:25.163Z,98204.37
2022-09-26T06:18:04.494Z,98202.15
2022-09-26T06:20:33.930Z,98204.14
2022-09-26T06:23:02.250Z,98201.65
2022-09-26T06:25:30.519Z,98203.86
2022-09-26T06:28:02.058Z,98207.06
2022-09-26T06:30:31.594Z,98209.95
2022-09-26T06:33:11.454Z,98204.67
2022-09-26T06:36:06.577Z,98198.13
2022-09-26T06:38:38.568Z,98195.35
2022-09-26T06:41:11.208Z,98195.86
2022-09-26T06:43:41.058Z,98196.54
2022-09-26T06:46:28.281Z,98198.43
2022-09-26T06:48:59.364Z,98196.92
2022-09-26T06:51:49.475Z,98191.73
2022-09-26T06:54:19.072Z,98188.95
2022-09-26T06:56:48.311Z,98194.93
2022-09-26T06:59:17.962Z,98191.71
2022-09-26T07:02:04.266Z,98197.49
2022-09-26T07:05:02.883Z,98196.73
2022-09-26T07:07:42.369Z,98193.95
2022-09-26T07:10:21.247Z,98191.25
2022-09-26T07:13:07.263Z,98188.79
2022-09-26T07:15:37.134Z,98192.15
2022-09-26T07:18:31.709Z,98191.99
2022-09-26T07:21:15.390Z,98197.05
2022-09-26T07:24:19.287Z,98199.20
2022-09-26T07:26:47.643Z,98199.49
2022-09-26T07:29:16.100Z,98198.77
2022-09-26T07:31:44.736Z,98197.39
2022-09-26T07:34:26.094Z,98194.59
2022-09-26T07:36:54.451Z,98197.11
2022-09-26T07:39:23.642Z,98197.63
2022-09-26T07:41:52.757Z,98195.18
2022-09-26T07:47:27.998Z,98197.41
2022-09-26T07:50:13.475Z,98197.00
2022-09-26T07:53:00.554Z,98197.61
2022-09-26T07:55:28.991Z,98196.05
2022-09-26T07:58:34.049Z,98193.73
2022-09-26T08:01:26.121Z,98196.72
2022-09-26T08:04:00.603Z,98196.60
2022-09-26T08:06:37.550Z,98197.41
2022-09-26T08:09:07.105Z,98192.77
2022-09-26T08:11:56.022Z,98194.39
2022-09-26T08:14:42.584Z,98192.83
2022-09-26T08:17:21.567Z,98191.68
2022-09-26T08:19:49.991Z,98188.60
2022-09-26T08:22:18.367Z,98185.02
2022-09-26T08:24:51.018Z,98178.93
2022-09-26T08:27:38.207Z,98179.48
2022-09-26T08:30:07.816Z,98171.98
2022-09-26T08:32:37.341Z,98172.04
2022-09-26T08:35:06.416Z,98176.21
2022-09-26T08:37:53.591Z,98174.50
2022-09-26T08:41:02.118Z,98168.86
2022-09-26T08:44:10.171Z,98166.18
2022-09-26T08:47:05.991Z,98169.30
2022-09-26T08:49:54.752Z,98164.77
2022-09-26T08:52:45.005Z,98165.36
2022-09-26T08:55:24.211Z,98167.86
2022-09-26T08:58:13.329Z,98171.39
2022-09-26T09:00:42.252Z,98171.14
2022-09-26T09:03:19.238Z,98166.56
2022-09-26T09:05:59.364Z,98172.20
2022-09-26T09:08:38.936Z,98168.52
2022-09-26T09:11:58.073Z,98168.80
2022-09-26T09:14:27.485Z,98168.09
2022-09-26T09:17:47.199Z,98168.25
2022-09-26T09:21:12.024Z,98168.28
2022-09-26T09:24:19.237Z,98171.70
2022-09-26T09:30:22.834Z,98169.96
2022-09-26T09:33:05.834Z,98169.16
2022-09-26T09:35:54.942Z,98168.31
2022-09-26T09:38:37.202Z,98166.70
2022-09-26T09:41:36.471Z,98163.63
2022-09-26T09:44:16.505Z,98168.89
2022-09-26T09:46:45.071Z,98171.25
2022-09-26T09:49:31.310Z,98171.74
2022-09-26T09:52:20.253Z,98172.09
2022-09-26T09:55:16.567Z,98171.25
2022-09-26T09:58:09.759Z,98173.00
2022-09-26T10:00:49.053Z,98173.14
2022-09-26T10:03:31.183Z,98181.19
2022-09-26T10:06:02.003Z,98182.81
2022-09-26T10:08:37.182Z,98180.73
2022-09-26T10:11:41.761Z,98182.95
2022-09-26T10:14:42.854Z,98188.05
2022-09-26T10:17:29.919Z,98184.39
2022-09-26T10:20:36.869Z,98181.42
2022-09-26T10:23:30.985Z,98177.86
2022-09-26T10:26:11.383Z,98179.48
2022-09-26T10:28:53.031Z,98176.45
2022-09-26T10:31:30.170Z,98176.30
2022-09-26T10:34:28.163Z,98171.27
2022-09-26T10:36:57.016Z,98164.98
2022-09-26T10:39:49.203Z,98164.67
2022-09-26T10:42:21.271Z,98157.43
2022-09-26T10:44:57.756Z,98159.34
2022-09-26T10:47:47.583Z,98159.95
2022-09-26T10:50:36.763Z,98156.86
2022-09-26T10:53:41.430Z,98155.14
2022-09-26T10:56:20.387Z,98153.66
2022-09-26T10:58:52.219Z,98152.19
2022-09-26T11:01:31.512Z,98155.67
2022-09-26T11:04:43.134Z,98149.64
2022-09-26T11:07:52.573Z,98144.84
2022-09-26T11:10:46.794Z,98143.93
2022-09-26T11:13:30.189Z,98143.84
2022-09-26T11:16:08.891Z,98137.73
2022-09-26T11:18:49.698Z,98139.75
2022-09-26T11:21:41.420Z,98140.89
2022-09-26T11:24:46.063Z,98138.10
2022-09-26T11:27:31.747Z,98137.95
2022-09-26T11:30:09.830Z,98131.45
2022-09-26T11:32:45.308Z,98128.71
2022-09-26T11:36:11.185Z,98125.80
2022-09-26T11:38:46.481Z,98124.69
2022-09-26T11:41:59.678Z,98119.22
2022-09-26T11:44:58.761Z,98117.66
2022-09-26T11:47:49.968Z,98116.02
2022-09-26T11:50:58.838Z,98114.23
2022-09-26T11:53:55.481Z,98113.98
2022-09-26T11:56:48.444Z,98108.91
2022-09-26T11:59:31.730Z,98105.80
2022-09-26T12:02:03.648Z,98104.98
2022-09-26T12:05:14.162Z,98100.33
2022-09-26T12:08:00.563Z,98101.70
2022-09-26T12:10:53.397Z,98100.10
2022-09-26T12:13:40.498Z,98096.81
2022-09-26T12:16:36.051Z,98093.69
2022-09-26T12:19:19.996Z,98087.38
2022-09-26T12:22:25.758Z,98083.10
2022-09-26T12:25:07.428Z,98086.45
2022-09-26T12:28:01.822Z,98082.80
2022-09-26T12:30:40.690Z,98084.42
2022-09-26T12:33:08.844Z,98074.02
2022-09-26T12:36:19.099Z,98073.04
2022-09-26T12:39:08.926Z,98073.32
2022-09-26T12:42:09.078Z,98074.42
2022-09-26T12:44:39.952Z,98075.98
2022-09-26T12:47:15.490Z,98077.23
2022-09-26T12:50:02.894Z,98074.34
2022-09-26T12:52:44.792Z,98073.69
2022-09-26T12:55:45.117Z,98070.98
2022-09-26T12:58:43.927Z,98068.49
2022-09-26T13:01:31.264Z,98066.43
2022-09-26T13:04:21.978Z,98061.13
2022-09-26T13:07:14.308Z,98062.17
2022-09-26T13:09:44.374Z,98065.27
2022-09-26T13:12:47.642Z,98065.35
2022-09-26T13:16:18.735Z,98071.45
2022-09-26T13:19:01.622Z,98075.14
2022-09-26T13:21:47.618Z,98072.17
2022-09-26T13:24:25.599Z,98072.66
2022-09-26T13:27:04.655Z,98075.46
2022-09-26T13:29:37.647Z,98070.37
2022-09-26T13:32:35.585Z,98069.11
2022-09-26T13:35:17.010Z,98070.89
2022-09-26T13:38:01.272Z,98071.71
2022-09-26T13:40:51.944Z,98069.74
2022-09-26T13:43:43.715Z,98071.46
2022-09-26T13:46:30.454Z,98072.45
2022-09-26T13:49:31.270Z,98068.18
2022-09-26T13:52:17.844Z,98060.09
2022-09-26T13:55:02.938Z,98053.71
2022-09-26T13:58:09.995Z,98057.05
2022-09-26T14:00:41.032Z,98058.98
2022-09-26T14:03:18.527Z,98055.11
2022-09-26T14:05:52.844Z,98053.99
2022-09-26T14:08:45.699Z,98047.23
2022-09-26T14:11:32.742Z,98044.39
2022-09-26T14:14:19.518Z,98046.20
2022-09-26T14:16:51.278Z,98052.57
2022-09-26T14:19:57.337Z,98050.38
2022-09-26T14:22:25.919Z,98048.98
2022-09-26T14:24:56.076Z,98046.86
2022-09-26T14:27:37.441Z,98046.56
2022-09-26T14:30:24.496Z,98044.76
2022-09-26T14:33:02.246Z,98044.16
2022-09-26T14:35:34.729Z,98049.52
2022-09-26T14:38:09.803Z,98045.96
2022-09-26T14:40:39.208Z,98051.77
2022-09-26T14:43:16.308Z,98049.38
2022-09-26T14:46:00.738Z,98053.72
2022-09-26T14:48:29.030Z,98051.64
2022-09-26T14:51:21.736Z,98048.20
2022-09-26T14:54:17.252Z,98044.23
2022-09-26T14:56:57.263Z,98041.75
2022-09-26T14:59:25.569Z,98041.34
2022-09-26T15:02:21.887Z,98040.59
2022-09-26T15:05:06.819Z,98037.63
2022-09-26T15:07:43.960Z,98038.88
2022-09-26T15:10:12.171Z,98037.34
2022-09-26T15:13:18.508Z,98039.19
2022-09-26T15:16:11.797Z,98035.88
2022-09-26T15:19:05.619Z,98033.11
2022-09-26T15:21:40.327Z,98029.00
2022-09-26T15:24:27.767Z,98032.19
2022-09-26T15:26:58.632Z,98030.83
2022-09-26T15:29:27.584Z,98032.58
2022-09-26T15:31:56.107Z,98029.21
2022-09-26T15:34:33.969Z,98032.09
2022-09-26T15:37:14.667Z,98031.59
2022-09-26T15:39:43.477Z,98035.42
2022-09-26T15:42:33.493Z,98035.08
2022-09-26T15:45:15.664Z,98032.98
2022-09-26T15:47:44.190Z,98034.47
2022-09-26T15:50:23.481Z,98033.73
2022-09-26T15:53:14.047Z,98033.92
2022-09-26T15:55:48.014Z,98035.75
2022-09-26T15:58:21.035Z,98033.17
2022-09-26T16:00:52.357Z,98034.73
2022-09-26T16:03:26.700Z,98032.42
2022-09-26T16:05:55.406Z,98030.73
2022-09-26T16:08:32.076Z,98027.82
2022-09-26T16:11:02.073Z,98026.34
2022-09-26T16:13:42.991Z,98026.57
2022-09-26T16:16:19.086Z,98022.94
2022-09-26T16:18:56.488Z,98016.60
2022-09-26T16:21:32.223Z,98016.36
2022-09-26T16:24:34.516Z,98021.14
2022-09-26T16:27:22.840Z,98022.67
2022-09-26T16:29:52.386Z,98021.55
2022-09-26T16:32:22.768Z,98022.63
2022-09-26T16:34:51.210Z,98027.63
2022-09-26T16:37:23.114Z,98030.52
2022-09-26T16:39:59.906Z,98027.11
2022-09-26T16:42:32.943Z,98022.20
2022-09-26T16:45:05.552Z,98024.05
2022-09-26T16:47:45.304Z,98028.57
2022-09-26T16:50:33.637Z,98031.82
2022-09-26T16:53:03.367Z,98031.77
2022-09-26T16:55:34.302Z,98030.04
2022-09-26T16:58:05.358Z,98029.73
2022-09-26T17:00:54.263Z,98029.29
2022-09-26T17:03:29.947Z,98031.44
2022-09-26T17:05:59.813Z,98034.45
2022-09-26T17:08:28.734Z,98035.38
2022-09-26T17:11:03.162Z,98027.91
2022-09-26T17:13:35.619Z,98031.56
2022-09-26T17:16:04.156Z,98026.80
2022-09-26T17:18:35.073Z,98024.71
2022-09-26T17:21:03.441Z,98022.83
2022-09-26T17:23:40.538Z,98026.76
2022-09-26T17:26:19.477Z,98025.77
2022-09-26T17:28:49.597Z,98026.18
2022-09-26T17:31:21.818Z,98027.08
2022-09-26T17:33:53.466Z,98028.27
2022-09-26T17:36:26.325Z,98029.48
2022-09-26T17:38:57.827Z,98029.75
2022-09-26T17:41:28.080Z,98031.31
2022-09-26T17:44:00.857Z,98030.83
2022-09-26T17:46:30.393Z,98032.64
2022-09-26T17:48:59.525Z,98029.23
2022-09-26T17:51:29.474Z,98027.65
2022-09-26T17:53:57.927Z,98025.59
2022-09-26T17:56:26.622Z,98027.30
2022-09-26T17:58:55.790Z,98032.25
2022-09-26T18:01:28.311Z,98035.16
2022-09-26T18:04:01.138Z,98030.70
2022-09-26T18:06:33.015Z,98031.59
2022-09-26T18:09:07.740Z,98030.85
2022-09-26T18:11:37.485Z,98032.88
2022-09-26T18:14:08.308Z,98027.77
2022-09-26T18:16:36.727Z,98026.17
2022-09-26T18:19:07.605Z,98017.32
2022-09-26T18:21:36.760Z,98015.22
2022-09-26T18:24:07.166Z,98012.52
2022-09-26T18:26:42.412Z,98011.06
2022-09-26T18:29:15.393Z,98012.14
2022-09-26T18:31:46.010Z,98016.21
2022-09-26T18:34:18.791Z,98014.14
2022-09-26T18:36:49.133Z,98014.74
2022-09-26T18:39:17.595Z,98013.38
2022-09-26T18:41:46.256Z,98012.86
2022-09-26T18:44:17.480Z,98016.45
2022-09-26T18:46:48.338Z,98018.09
2022-09-26T18:49:17.552Z,98018.61
2022-09-26T18:51:46.968Z,98018.95
2022-09-26T18:54:17.757Z,98015.39
2022-09-26T18:57:05.553Z,98017.19
2022-09-26T18:59:33.824Z,98011.71
2022-09-26T19:02:04.337Z,98015.98
2022-09-26T19:04:33.526Z,98011.52
2022-09-26T19:07:06.765Z,98007.88
2022-09-26T19:09:36.540Z,98012.89
2022-09-26T19:12:05.218Z,98013.92
2022-09-26T19:14:33.513Z,98014.55
2022-09-26T19:17:01.843Z,98018.85
2022-09-26T19:19:32.544Z,98017.31
2022-09-26T19:22:08.267Z,98015.19
2022-09-26T19:24:59.539Z,98015.52
2022-09-26T19:27:36.295Z,98015.17
2022-09-26T19:30:17.138Z,98016.11
2022-09-26T19:32:56.311Z,98017.61
2022-09-26T19:35:31.949Z,98016.45
2022-09-26T19:38:01.732Z,98017.96
2022-09-26T19:40:30.292Z,98013.84
2022-09-26T19:42:59.055Z,98013.96
2022-09-26T19:45:27.457Z,98011.02
2022-09-26T19:47:56.272Z,98005.84
2022-09-26T19:50:28.819Z,98008.53
2022-09-26T19:53:00.843Z,98012.31
2022-09-26T19:55:31.019Z,98007.53
2022-09-26T19:58:12.395Z,98011.19
2022-09-26T20:00:43.625Z,98008.05
2022-09-26T20:03:25.627Z,98011.91
2022-09-26T20:05:54.167Z,98008.73
2022-09-26T20:08:25.641Z,98011.61
2022-09-26T20:10:55.934Z,98011.20
2022-09-26T20:13:24.233Z,98015.45
2022-09-26T20:15:52.570Z,98014.94
2022-09-26T20:18:24.649Z,98020.20
2022-09-26T20:20:55.747Z,98020.27
2022-09-26T20:23:27.543Z,98019.38
2022-09-26T20:25:56.624Z,98019.17
2022-09-26T20:28:24.998Z,98018.16
2022-09-26T20:30:55.550Z,98019.35
2022-09-26T20:33:26.329Z,98020.61
2022-09-26T20:36:03.012Z,98022.43
2022-09-26T20:38:48.231Z,98023.77
2022-09-26T20:41:36.219Z,98025.67
2022-09-26T20:44:29.312Z,98023.83
2022-09-26T20:47:04.714Z,98028.98
2022-09-26T20:49:43.972Z,98029.70
2022-09-26T20:52:20.852Z,98031.05
2022-09-26T20:54:50.097Z,98030.29
2022-09-26T20:57:19.834Z,98028.91
2022-09-26T20:59:48.872Z,98028.83
2022-09-26T21:02:23.666Z,98025.23
2022-09-26T21:04:52.448Z,98024.70
2022-09-26T21:07:21.264Z,98027.00
2022-09-26T21:09:50.528Z,98020.71
2022-09-26T21:12:19.350Z,98024.84
2022-09-26T21:14:47.981Z,98024.13
2022-09-26T21:17:27.661Z,98020.86
2022-09-26T21:19:56.255Z,98013.79
2022-09-26T21:22:47.675Z,98008.71
2022-09-26T21:25:18.842Z,98005.61
2022-09-26T21:27:56.601Z,98006.36
2022-09-26T21:30:25.558Z,98005.02
2022-09-26T21:32:57.379Z,97999.87
2022-09-26T21:35:29.623Z,97998.95
2022-09-26T21:38:00.876Z,98001.64
2022-09-26T21:40:32.342Z,97998.44
2022-09-26T21:43:11.767Z,98000.63
2022-09-26T21:45:43.705Z,97997.52
2022-09-26T21:48:14.142Z,97997.20
2022-09-26T21:50:47.436Z,97990.63
2022-09-26T21:53:22.014Z,97990.88
2022-09-26T21:55:55.163Z,97985.16
2022-09-26T21:58:28.074Z,97987.14
2022-09-26T22:00:57.813Z,97984.71
2022-09-26T22:03:26.255Z,97980.46
2022-09-26T22:05:54.493Z,97980.60
2022-09-26T22:08:22.804Z,97979.81
2022-09-26T22:10:54.078Z,97982.35
2022-09-26T22:13:22.278Z,97979.91
2022-09-26T22:15:50.591Z,97976.57
2022-09-26T22:18:18.769Z,97978.23
2022-09-26T22:20:47.287Z,97979.65
2022-09-26T22:23:15.461Z,97978.98
2022-09-26T22:25:49.586Z,97976.27
2022-09-26T22:28:18.062Z,97973.75
2022-09-26T22:30:46.336Z,97972.75
2022-09-26T22:33:14.685Z,97963.96
2022-09-26T22:35:47.440Z,97967.48
2022-09-26T22:38:16.095Z,97963.95
2022-09-26T22:40:45.555Z,97962.46
2022-09-26T22:43:13.862Z,97957.16
2022-09-26T22:45:42.048Z,97952.10
2022-09-26T22:48:10.253Z,97948.34
2022-09-26T22:50:38.451Z,97950.14
2022-09-26T22:53:06.667Z,97947.71
2022-09-26T22:55:34.941Z,97949.21
2022-09-26T22:58:03.349Z,97947.56
2022-09-26T23:00:31.701Z,97944.46
2022-09-26T23:02:59.932Z,97938.17
2022-09-26T23:05:28.256Z,97932.96
2022-09-26T23:07:56.521Z,97934.60
2022-09-26T23:10:25.058Z,97929.06
2022-09-26T23:12:53.351Z,97924.62
2022-09-26T23:15:21.651Z,97920.96
2022-09-26T23:17:49.971Z,97924.55
2022-09-26T23:20:18.169Z,97922.67
2022-09-26T23:22:46.401Z,97923.91
2022-09-26T23:25:14.720Z,97920.27
2022-09-26T23:27:42.920Z,97919.14
2022-09-26T23:30:11.846Z,97915.66
2022-09-26T23:32:40.115Z,97916.64
2022-09-26T23:35:08.541Z,97910.02
2022-09-26T23:37:36.691Z,97907.05
2022-09-26T23:40:05.408Z,97906.74
2022-09-26T23:42:33.670Z,97906.44
2022-09-26T23:45:01.970Z,97906.02
2022-09-26T23:47:30.235Z,97902.50
2022-09-26T23:49:58.475Z,97902.77
2022-09-26T23:52:26.697Z,97903.09
2022-09-26T23:54:54.960Z,97902.17
2022-09-26T23:57:24.197Z,97904.38
2022-09-26T23:59:52.479Z,97901.23
